createdAt,value
2019-03-20T00:00:13.388Z,81.10
2019-03-20T00:03:26.926Z,80.96
2019-03-20T00:06:40.389Z,81.47
2019-03-20T00:09:53.845Z,81.45
2019-03-20T00:13:07.528Z,81.06
2019-03-20T00:16:21.107Z,81.26
2019-03-20T00:19:34.591Z,82.00
2019-03-20T00:22:48.049Z,82.45
2019-03-20T00:26:01.685Z,82.43
2019-03-20T00:29:15.184Z,82.54
2019-03-20T00:32:28.743Z,82.54
2019-03-20T00:35:42.534Z,82.45
2019-03-20T00:38:56.092Z,82.23
2019-03-20T00:42:19.384Z,82.11
2019-03-20T00:45:33.172Z,82.24
2019-03-20T00:48:46.635Z,82.35
2019-03-20T00:52:00.114Z,82.64
2019-03-20T00:55:14.522Z,82.40
2019-03-20T00:58:28.257Z,82.35
2019-03-20T01:01:41.990Z,82.36
2019-03-20T01:04:55.463Z,82.73
2019-03-20T01:08:08.941Z,82.55
2019-03-20T01:11:22.452Z,82.72
2019-03-20T01:14:36.769Z,82.57
2019-03-20T01:17:50.349Z,82.53
2019-03-20T01:21:04.225Z,82.64
2019-03-20T01:24:17.812Z,82.33
2019-03-20T01:27:31.287Z,82.60
2019-03-20T01:30:44.766Z,82.83
2019-03-20T01:33:58.370Z,83.25
2019-03-20T01:37:11.851Z,83.22
2019-03-20T01:40:25.451Z,83.39
2019-03-20T01:43:39.227Z,83.49
2019-03-20T01:46:52.705Z,83.15
2019-03-20T01:50:06.571Z,83.21
2019-03-20T01:53:20.450Z,83.19
2019-03-20T01:56:34.231Z,83.26
2019-03-20T01:59:48.025Z,83.34
2019-03-20T02:03:01.498Z,83.16
2019-03-20T02:06:14.963Z,83.42
2019-03-20T02:09:28.437Z,83.55
2019-03-20T02:12:42.558Z,83.14
2019-03-20T04:37:58.881Z,85.30
2019-03-20T04:41:12.467Z,85.34
2019-03-20T04:44:25.951Z,85.25
2019-03-20T04:47:39.427Z,84.91
2019-03-20T04:50:52.920Z,85.06
2019-03-20T04:54:06.408Z,84.85
2019-03-20T04:57:20.147Z,84.83
2019-03-20T05:00:33.843Z,85.06
2019-03-20T05:03:47.748Z,85.20
2019-03-20T05:07:01.594Z,85.18
2019-03-20T05:10:15.093Z,84.29
2019-03-20T05:13:28.558Z,84.14
2019-03-20T05:16:42.670Z,84.02
2019-03-20T05:19:56.138Z,84.08
2019-03-20T05:23:09.706Z,84.44
2019-03-20T05:26:23.176Z,84.64
2019-03-20T05:29:36.741Z,84.51
2019-03-20T05:32:50.220Z,83.97
2019-03-20T05:36:03.789Z,84.00
2019-03-20T05:39:17.453Z,83.79
2019-03-20T05:42:31.230Z,84.14
2019-03-20T05:45:44.695Z,84.03
2019-03-20T05:48:58.203Z,84.19
2019-03-20T05:52:11.647Z,84.20
2019-03-20T05:55:25.139Z,84.33
2019-03-20T05:58:38.605Z,84.54
2019-03-20T06:01:52.070Z,84.58
2019-03-20T06:05:06.302Z,84.38
2019-03-20T06:08:20.066Z,84.17
2019-03-20T06:11:33.528Z,84.48
2019-03-20T06:14:47.003Z,84.33
2019-03-20T06:18:00.467Z,84.37
2019-03-20T06:21:13.947Z,84.37
2019-03-20T06:24:27.416Z,84.36
2019-03-20T06:27:41.235Z,84.06
2019-03-20T06:30:54.698Z,84.20
2019-03-20T06:34:08.181Z,84.16
2019-03-20T06:37:31.973Z,84.30
2019-03-20T06:40:37.451Z,84.21
2019-03-20T06:43:51.023Z,84.48
2019-03-20T06:47:04.607Z,84.71
2019-03-20T06:50:18.366Z,84.76
2019-03-20T06:53:31.850Z,84.72
2019-03-20T06:56:45.305Z,84.82
2019-03-20T07:00:42.865Z,84.57
2019-03-20T07:04:06.237Z,84.42
2019-03-20T07:07:27.056Z,84.20
2019-03-20T07:11:06.359Z,84.20
2019-03-20T07:14:19.843Z,84.30
2019-03-20T07:17:33.333Z,84.12
2019-03-20T07:20:46.806Z,83.81
2019-03-20T07:24:00.295Z,83.64
2019-03-20T07:27:13.871Z,83.22
2019-03-20T07:30:27.438Z,82.65
2019-03-20T07:33:40.918Z,82.48
2019-03-20T07:36:54.529Z,82.38
2019-03-20T07:40:08.314Z,82.09
2019-03-20T07:43:21.835Z,81.60
2019-03-20T07:46:35.624Z,81.28
2019-03-20T07:49:49.402Z,80.60
2019-03-20T07:53:03.086Z,80.11
2019-03-20T07:56:16.545Z,79.64
2019-03-20T07:59:30.234Z,79.36
2019-03-20T08:02:44.022Z,79.13
2019-03-20T08:05:57.652Z,78.90
2019-03-20T08:09:11.095Z,78.31
2019-03-20T08:12:24.843Z,77.44
2019-03-20T08:15:38.476Z,77.00
2019-03-20T08:18:51.974Z,77.08
2019-03-20T08:22:05.546Z,74.48
2019-03-20T08:25:19.148Z,71.34
2019-03-20T08:28:32.614Z,70.90
2019-03-20T08:31:46.335Z,70.33
2019-03-20T08:35:00.122Z,68.68
2019-03-20T08:38:18.078Z,67.84
2019-03-20T08:41:29.146Z,65.58
2019-03-20T08:44:42.600Z,65.59
2019-03-20T08:47:56.384Z,62.65
2019-03-20T08:51:09.965Z,61.87
2019-03-20T08:54:23.479Z,60.87
2019-03-20T08:57:36.943Z,57.68
2019-03-20T09:00:50.662Z,57.46
2019-03-20T09:04:04.220Z,58.08
2019-03-20T09:07:17.685Z,54.90
2019-03-20T09:10:31.145Z,53.93
2019-03-20T09:13:44.639Z,50.28
2019-03-20T09:16:58.116Z,51.51
2019-03-20T09:20:12.827Z,49.51
2019-03-20T09:23:26.531Z,49.22
2019-03-20T09:26:39.999Z,47.12
2019-03-20T09:29:53.720Z,46.54
2019-03-20T09:33:07.226Z,46.84
2019-03-20T09:36:20.793Z,46.56
2019-03-20T09:39:34.358Z,45.29
2019-03-20T09:42:48.214Z,44.06
2019-03-20T09:46:01.671Z,43.89
2019-03-20T09:49:15.542Z,42.90
2019-03-20T09:52:29.096Z,42.81
2019-03-20T09:55:42.649Z,42.14
2019-03-20T09:58:56.267Z,41.83
2019-03-20T10:02:10.315Z,42.13
2019-03-20T10:05:24.602Z,39.78
2019-03-20T10:08:38.249Z,39.84
2019-03-20T10:11:51.733Z,39.98
2019-03-20T10:15:07.241Z,40.56
2019-03-20T10:18:20.973Z,39.56
2019-03-20T10:21:34.710Z,40.75
2019-03-20T10:24:48.188Z,38.66
2019-03-20T10:28:02.500Z,38.80
2019-03-20T10:31:16.190Z,38.31
2019-03-20T10:34:39.225Z,38.52
2019-03-20T10:37:46.173Z,38.90
2019-03-20T10:40:59.630Z,37.33
2019-03-20T10:44:13.112Z,35.11
2019-03-20T10:47:26.708Z,35.06
2019-03-20T10:50:40.188Z,35.94
2019-03-20T10:53:53.657Z,35.23
2019-03-20T10:57:07.147Z,35.17
2019-03-20T11:00:21.079Z,33.70
2019-03-20T11:03:34.640Z,34.01
2019-03-20T11:06:48.104Z,33.10
2019-03-20T11:10:02.013Z,33.11
2019-03-20T11:13:15.472Z,33.63
2019-03-20T11:16:29.042Z,33.13
2019-03-20T11:19:42.527Z,32.60
2019-03-20T11:22:55.990Z,34.52
2019-03-20T11:26:09.791Z,33.04
2019-03-20T11:29:23.271Z,33.01
2019-03-20T11:32:36.739Z,31.12
2019-03-20T11:35:50.776Z,30.15
2019-03-20T11:39:07.993Z,30.58
2019-03-20T11:42:21.743Z,32.32
2019-03-20T11:45:35.323Z,31.24
2019-03-20T11:48:48.812Z,30.89
2019-03-20T11:52:02.624Z,30.96
2019-03-20T11:55:16.200Z,29.19
2019-03-20T11:58:29.930Z,31.16
2019-03-20T12:01:43.517Z,31.80
2019-03-20T12:04:56.995Z,32.26
2019-03-20T12:08:10.463Z,31.65
2019-03-20T12:11:23.957Z,31.67
2019-03-20T12:14:37.431Z,29.72
2019-03-20T12:17:50.941Z,29.81
2019-03-20T12:21:04.629Z,30.00
2019-03-20T12:24:18.204Z,28.39
2019-03-20T12:27:31.793Z,27.98
2019-03-20T12:30:45.280Z,28.67
2019-03-20T12:33:58.779Z,29.35
2019-03-20T12:37:12.281Z,29.84
2019-03-20T12:40:27.325Z,29.11
2019-03-20T12:43:41.324Z,30.82
2019-03-20T12:46:54.950Z,29.94
2019-03-20T12:50:09.107Z,28.46
2019-03-20T12:53:25.615Z,26.00
2019-03-20T12:56:39.092Z,27.42
2019-03-20T12:59:52.559Z,27.09
2019-03-20T13:03:06.438Z,28.02
2019-03-20T13:06:19.919Z,28.11
2019-03-20T13:09:33.443Z,26.21
2019-03-20T13:12:47.224Z,26.90
2019-03-20T13:16:00.707Z,27.81
2019-03-20T13:19:14.184Z,27.86
2019-03-20T13:22:28.038Z,26.80
2019-03-20T13:25:41.614Z,26.20
2019-03-20T13:28:55.105Z,25.91
2019-03-20T13:32:08.588Z,26.90
2019-03-20T13:35:22.062Z,28.10
2019-03-20T13:38:35.547Z,25.14
2019-03-20T13:41:49.291Z,26.58
2019-03-20T13:45:03.458Z,27.65
2019-03-20T13:48:16.945Z,26.25
2019-03-20T13:51:30.561Z,28.44
2019-03-20T13:54:44.270Z,27.87
2019-03-20T13:57:57.752Z,29.31
2019-03-20T14:01:11.220Z,26.25
2019-03-20T14:04:25.006Z,27.31
2019-03-20T14:07:38.483Z,26.91
2019-03-20T14:10:52.079Z,25.73
2019-03-20T14:14:05.842Z,25.52
2019-03-20T14:17:19.423Z,28.08
2019-03-20T14:20:32.922Z,29.32
2019-03-20T14:23:46.435Z,28.31
2019-03-20T14:27:00.446Z,27.09
2019-03-20T14:30:16.487Z,26.48
2019-03-20T14:33:30.007Z,27.83
2019-03-20T14:36:43.694Z,29.00
2019-03-20T14:39:57.191Z,28.75
2019-03-20T14:43:11.392Z,27.62
2019-03-20T14:46:25.376Z,29.35
2019-03-20T14:49:38.907Z,29.78
2019-03-20T14:52:52.595Z,29.46
2019-03-20T14:56:06.093Z,30.23
2019-03-20T14:59:19.859Z,29.85
2019-03-20T15:02:33.337Z,29.39
2019-03-20T15:05:46.918Z,30.35
2019-03-20T15:09:00.677Z,29.14
2019-03-20T15:12:14.256Z,29.88
2019-03-20T15:15:36.742Z,28.33
2019-03-20T15:18:50.494Z,29.45
2019-03-20T15:22:04.065Z,31.57
2019-03-20T15:25:17.655Z,30.65
2019-03-20T15:28:31.153Z,30.88
2019-03-20T15:31:44.645Z,29.34
2019-03-20T15:34:58.738Z,29.18
2019-03-20T15:38:12.347Z,28.46
2019-03-20T15:41:26.151Z,29.28
2019-03-20T15:44:39.904Z,30.89
2019-03-20T15:47:53.557Z,29.41
2019-03-20T15:51:07.093Z,29.37
2019-03-20T15:54:20.860Z,29.73
2019-03-20T15:57:34.398Z,28.63
2019-03-20T16:00:47.911Z,28.70
2019-03-20T16:04:02.689Z,30.72
2019-03-20T16:07:16.662Z,31.03
2019-03-20T16:10:30.408Z,29.45
2019-03-20T16:13:44.028Z,28.32
2019-03-20T16:16:57.827Z,30.46
2019-03-20T16:20:11.980Z,30.97
2019-03-20T16:23:25.471Z,30.83
2019-03-20T16:26:39.047Z,31.20
2019-03-20T16:29:52.524Z,31.77
2019-03-20T16:33:05.986Z,31.79
2019-03-20T16:36:19.492Z,33.20
2019-03-20T16:39:32.976Z,33.41
2019-03-20T16:42:46.669Z,33.96
2019-03-20T16:46:00.514Z,34.38
2019-03-20T16:49:13.993Z,34.81
2019-03-20T16:52:27.476Z,34.51
2019-03-20T16:55:40.968Z,35.19
2019-03-20T16:58:54.427Z,34.63
2019-03-20T17:02:08.172Z,35.45
2019-03-20T17:05:22.071Z,35.27
2019-03-20T17:08:35.683Z,37.26
2019-03-20T17:11:49.188Z,38.49
2019-03-20T17:15:05.140Z,38.93
2019-03-20T17:18:18.675Z,40.30
2019-03-20T17:21:32.186Z,41.54
2019-03-20T17:24:45.736Z,42.75
2019-03-20T17:27:59.399Z,43.99
2019-03-20T17:31:13.216Z,45.26
2019-03-20T17:34:26.686Z,45.92
2019-03-20T17:37:40.825Z,46.81
2019-03-20T17:40:54.351Z,47.83
2019-03-20T17:44:30.342Z,49.05
2019-03-20T17:47:44.340Z,49.30
2019-03-20T17:50:57.827Z,50.75
2019-03-20T17:54:11.387Z,52.07
2019-03-20T17:57:25.136Z,53.14
2019-03-20T18:00:40.943Z,53.82
2019-03-20T18:03:54.529Z,54.41
2019-03-20T18:07:08.134Z,54.72
2019-03-20T18:10:21.856Z,55.22
2019-03-20T18:13:36.178Z,55.64
2019-03-20T18:16:49.658Z,57.18
2019-03-20T18:20:03.867Z,58.46
2019-03-20T18:23:17.347Z,58.95
2019-03-20T18:26:31.278Z,59.07
2019-03-20T18:29:44.798Z,59.41
2019-03-20T18:32:58.474Z,59.79
2019-03-20T18:36:12.032Z,60.42
2019-03-20T18:39:25.509Z,61.42
2019-03-20T18:42:39.087Z,62.69
2019-03-20T18:45:52.555Z,62.88
2019-03-20T18:49:06.340Z,63.20
2019-03-20T18:52:19.808Z,63.46
2019-03-20T18:55:33.526Z,63.30
2019-03-20T18:58:47.026Z,64.12
2019-03-20T19:02:00.482Z,65.00
2019-03-20T19:05:16.966Z,64.83
2019-03-20T19:08:30.570Z,65.68
2019-03-20T19:11:44.240Z,66.26
2019-03-20T19:14:57.726Z,66.39
2019-03-20T19:18:11.689Z,66.90
2019-03-20T19:21:25.151Z,67.50
2019-03-20T19:24:38.633Z,68.65
2019-03-20T19:27:52.427Z,68.21
2019-03-20T19:31:05.897Z,69.37
2019-03-20T19:34:19.452Z,69.92
2019-03-20T19:37:33.167Z,70.27
2019-03-20T19:40:46.636Z,70.40
2019-03-20T19:44:00.743Z,70.93
2019-03-20T19:47:14.203Z,70.90
2019-03-20T19:50:27.703Z,71.40
2019-03-20T19:53:41.170Z,71.13
2019-03-20T19:56:54.662Z,71.56
2019-03-20T20:00:12.138Z,71.09
2019-03-20T20:03:25.640Z,70.88
2019-03-20T20:06:39.137Z,70.74
2019-03-20T20:09:52.604Z,71.26
2019-03-20T20:13:06.086Z,72.53
2019-03-20T20:16:19.570Z,73.29
2019-03-20T20:19:33.056Z,73.12
2019-03-20T20:22:47.008Z,72.49
2019-03-20T20:26:00.498Z,72.37
2019-03-20T20:29:13.956Z,72.03
2019-03-20T20:32:27.430Z,72.02
2019-03-20T20:35:41.306Z,72.68
2019-03-20T20:38:54.994Z,73.36
2019-03-20T20:42:08.454Z,74.27
2019-03-20T20:45:22.148Z,74.18
2019-03-20T20:48:35.617Z,74.06
2019-03-20T20:51:49.107Z,74.04
2019-03-20T20:55:03.741Z,74.37
2019-03-20T20:58:17.532Z,75.02
2019-03-20T21:01:31.011Z,75.24
2019-03-20T21:04:44.477Z,75.03
2019-03-20T21:07:57.935Z,74.76
2019-03-20T21:11:11.710Z,74.87
2019-03-20T21:14:25.174Z,76.22
2019-03-20T21:17:48.046Z,76.58
2019-03-20T21:21:02.560Z,76.25
2019-03-20T21:24:22.803Z,76.13
2019-03-20T21:28:28.836Z,75.84
2019-03-20T21:31:49.618Z,75.92
2019-03-20T21:36:12.830Z,76.40
2019-03-20T21:39:26.821Z,76.46
2019-03-20T21:43:24.530Z,76.30
2019-03-20T21:47:23.532Z,75.72
2019-03-20T21:51:11.776Z,76.37
2019-03-20T21:55:03.168Z,77.22
2019-03-20T21:58:31.545Z,77.42
2019-03-20T22:02:35.989Z,77.16
2019-03-20T22:06:31.494Z,77.25
2019-03-20T22:10:36.329Z,76.76
2019-03-20T22:14:00.909Z,77.09
2019-03-20T22:17:55.804Z,77.38
2019-03-20T22:21:42.825Z,77.03
2019-03-20T22:25:18.193Z,78.05
2019-03-20T22:28:58.140Z,78.37
2019-03-20T22:32:49.894Z,78.17
2019-03-20T22:36:28.219Z,77.65
2019-03-20T22:40:33.033Z,77.93
2019-03-20T22:43:59.635Z,78.18
2019-03-20T22:48:13.708Z,77.42
2019-03-20T22:52:00.770Z,77.41
2019-03-20T22:55:36.467Z,77.54
2019-03-20T22:58:50.722Z,78.12
2019-03-20T23:02:29.340Z,78.36
2019-03-20T23:05:43.626Z,78.44
2019-03-20T23:08:57.620Z,78.47
2019-03-20T23:12:13.259Z,78.03
2019-03-20T23:15:27.312Z,77.76
2019-03-20T23:18:41.437Z,77.52
2019-03-20T23:21:55.742Z,77.64
2019-03-20T23:25:10.136Z,78.21
2019-03-20T23:28:24.167Z,78.16
2019-03-20T23:31:38.267Z,78.08
2019-03-20T23:34:52.499Z,78.56
2019-03-20T23:38:06.501Z,78.56
2019-03-20T23:41:20.714Z,78.42
2019-03-20T23:44:34.718Z,78.55
2019-03-20T23:48:08.509Z,78.87
2019-03-20T23:51:23.315Z,79.13
2019-03-20T23:54:46.395Z,79.08
2019-03-20T23:58:00.529Z,78.76
